Daikoku — JD3247 — position and weather

sailwx.info

Track history (hours):
 
Tides and Currents Weather Stations Pressure Air Temp Water Temp Dewpoint Dewpoint Depression Visibility Wind Speed Wind Dir Waves Ship Positions

Daikoku

Last reported at 2015-Mar-28 07:29 UTC. Time now 2015-Mar-28 14:20 UTC.
Position N 34°24' E 135°03'.

Length 95 m; draft 3.8 m.

Type: Cargo ship. MMSI: 431003009.

Date/timePositionNaut miles runAvg speedWind from/ knotsBaromVisibWave heightAir tempDewpointWater temp
2015-Mar-28 07:29N 34°24' E 135°03'1112.2
2015-Mar-28 06:33N 34°32' E 135°13'8 7.9
2015-Mar-28 05:33N 34°40' E 135°14'0 0.0
2015-Mar-28 04:19N 34°40' E 135°14'0 0.0
2015-Mar-28 03:31N 34°40' E 135°14'3 2.8
2015-Mar-28 02:33N 34°41' E 135°17'2 2.4
2015-Mar-28 01:33N 34°39' E 135°15'0 0.0
2015-Mar-28 00:26N 34°39' E 135°15'1 1.0
2015-Mar-27 23:33N 34°39' E 135°16'2 2.0
2015-Mar-27 22:31N 34°37' E 135°15'0 0.0
2015-Mar-27 21:32N 34°37' E 135°15'0 0.0
2015-Mar-27 20:28N 34°37' E 135°15'0 0.0
2015-Mar-27 19:32N 34°37' E 135°15'0 0.0
2015-Mar-27 18:26N 34°37' E 135°15'0 0.0
2015-Mar-27 17:32N 34°37' E 135°15'1010.1
2015-Mar-27 16:33N 34°28' E 135°09'1313.1
2015-Mar-27 15:32N 34°18' E 134°59'1212.7
2015-Mar-27 14:33N 34°06' E 134°60'233 9.5
2015-Mar-26 14:05N 35°01' E 139°34'611.1
2015-Mar-26 13:33N 35°05' E 139°40'1110.9
2015-Mar-26 12:33N 35°14' E 139°46'1110.8
2015-Mar-26 11:33N 35°24' E 139°41'0 0.1
2015-Mar-26 10:29N 35°24' E 139°41'1 1.3
2015-Mar-26 09:33N 35°24' E 139°42'2 0.6
2015-Mar-26 07:11N 35°23' E 139°44'0 0.1
2015-Mar-26 06:20N 35°23' E 139°44'0 0.0
2015-Mar-26 05:32N 35°23' E 139°44'0 0.0
2015-Mar-26 04:23N 35°23' E 139°44'0 0.0
2015-Mar-26 03:32N 35°23' E 139°44'0 0.0
2015-Mar-26 02:32N 35°23' E 139°44'0 0.0
2015-Mar-26 01:32N 35°23' E 139°44'0 0.0
2015-Mar-26 00:26N 35°23' E 139°44'0 0.0
2015-Mar-25 23:32N 35°23' E 139°44'0 0.0
2015-Mar-25 22:32N 35°23' E 139°44'0 0.0
2015-Mar-25 21:32N 35°23' E 139°44'0 0.0
2015-Mar-25 20:32N 35°23' E 139°44'0 0.0
2015-Mar-25 19:29N 35°23' E 139°44'0 0.0
2015-Mar-25 18:32N 35°23' E 139°44'0 0.0
2015-Mar-25 17:32N 35°23' E 139°44'0 0.0
2015-Mar-25 16:32N 35°23' E 139°44'0 0.0
2015-Mar-25 15:32N 35°23' E 139°44'0 0.0
2015-Mar-25 14:32N 35°23' E 139°44'0 0.0
2015-Mar-25 13:32N 35°23' E 139°44'0 0.0
2015-Mar-25 12:32N 35°23' E 139°44'0 0.0
2015-Mar-25 11:32N 35°23' E 139°44'0 0.0
2015-Mar-25 10:32N 35°23' E 139°44'0 0.1
2015-Mar-25 09:32N 35°23' E 139°44'0 0.1
2015-Mar-25 08:32N 35°23' E 139°44'0 0.0
2015-Mar-25 07:32N 35°23' E 139°44'0 0.0
2015-Mar-25 06:32N 35°23' E 139°44'0 0.1
2015-Mar-25 05:29N 35°23' E 139°44'0 0.0
2015-Mar-25 04:32N 35°23' E 139°44'0 0.0
2015-Mar-25 03:32N 35°23' E 139°44'0 0.0
2015-Mar-25 02:32N 35°23' E 139°44'0 0.0
2015-Mar-25 01:32N 35°23' E 139°44'9 9.2
2015-Mar-25 00:33N 35°30' E 139°51'7 6.5
2015-Mar-24 23:31N 35°36' E 139°48'5 5.1
2015-Mar-24 22:31N 35°33' E 139°53'0 0.0
2015-Mar-24 21:28N 35°33' E 139°53'0 0.0
2015-Mar-24 20:22N 35°33' E 139°53'0 0.0
2015-Mar-24 19:31N 35°33' E 139°53'0 0.0
2015-Mar-24 18:31N 35°33' E 139°53'0 0.0
2015-Mar-24 17:25N 35°33' E 139°53'0 0.0
2015-Mar-24 16:16N 35°33' E 139°53'0 0.1
2015-Mar-24 15:31N 35°33' E 139°53'0 0.0
2015-Mar-24 14:25N 35°33' E 139°53'0 0.0
2015-Mar-24 13:28N 35°33' E 139°53'0 0.0
2015-Mar-24 12:25N 35°33' E 139°53'0 0.0
2015-Mar-24 11:25N 35°33' E 139°53'0 0.0
2015-Mar-24 10:25N 35°33' E 139°53'0 0.0
2015-Mar-24 09:25N 35°33' E 139°53'0 0.0
2015-Mar-24 08:25N 35°33' E 139°53'0 0.0
2015-Mar-24 07:31N 35°33' E 139°53'0 0.0
2015-Mar-24 06:25N 35°33' E 139°53'0 0.0
2015-Mar-24 05:25N 35°33' E 139°53'0 0.0
2015-Mar-24 04:19N 35°33' E 139°53'0 0.1
2015-Mar-24 03:28N 35°33' E 139°53'0 0.0
2015-Mar-24 02:19N 35°33' E 139°53'0 0.0
2015-Mar-24 01:31N 35°33' E 139°53'9 9.6
2015-Mar-24 00:33N 35°27' E 139°44'1 1.0
2015-Mar-23 23:33N 35°27' E 139°43'3 2.7
2015-Mar-23 22:32N 35°24' E 139°44'0 0.0
2015-Mar-23 21:32N 35°24' E 139°44'0 0.1
2015-Mar-23 20:32N 35°24' E 139°45'0 0.0
2015-Mar-23 19:32N 35°24' E 139°44'0 0.1
2015-Mar-23 18:32N 35°24' E 139°44'0 0.0
2015-Mar-23 17:32N 35°24' E 139°44'0 0.1
2015-Mar-23 16:32N 35°24' E 139°44'0 0.0
2015-Mar-23 15:32N 35°24' E 139°44'0 0.0
2015-Mar-23 14:32N 35°24' E 139°44'0 0.0
2015-Mar-23 13:32N 35°24' E 139°44'0 0.1
2015-Mar-23 12:32N 35°24' E 139°44'0 0.0
2015-Mar-23 11:32N 35°24' E 139°44'0 0.0
2015-Mar-23 10:32N 35°24' E 139°44'0 0.0
2015-Mar-23 09:32N 35°24' E 139°44'0 0.0
2015-Mar-23 08:29N 35°24' E 139°44'0 0.0
2015-Mar-23 07:29N 35°24' E 139°44'0 0.1
2015-Mar-23 06:29N 35°24' E 139°44'0 0.0
2015-Mar-23 05:29N 35°24' E 139°44'0 0.0
2015-Mar-23 04:29N 35°24' E 139°44'0 0.0
2015-Mar-23 03:32N 35°24' E 139°44'0 0.0
2015-Mar-23 02:32N 35°24' E 139°44'0 0.0
2015-Mar-23 01:32N 35°24' E 139°44'0 0.0
2015-Mar-23 00:32N 35°24' E 139°44'0 0.0
2015-Mar-22 23:32N 35°24' E 139°44'0 0.1
2015-Mar-22 22:32N 35°24' E 139°44'0 0.1
2015-Mar-22 21:32N 35°24' E 139°44'0 0.0
2015-Mar-22 20:32N 35°24' E 139°44'0 0.0
2015-Mar-22 19:29N 35°24' E 139°44'0 0.1
2015-Mar-22 18:32N 35°24' E 139°44'0 0.0
2015-Mar-22 17:32N 35°24' E 139°44'3 3.1
2015-Mar-22 16:33N 35°24' E 139°41'0 0.1
2015-Mar-22 15:32N 35°24' E 139°41'8 8.0
2015-Mar-22 14:33N 35°17' E 139°45'1313.3
2015-Mar-22 13:34N 35°04' E 139°45'1514.9
2015-Mar-22 12:33N 34°55' E 139°30'227 7.7
2015-Mar-21 07:05N 34°11' E 134°59'814.9
2015-Mar-21 06:33N 34°18' E 134°59'1313.1
2015-Mar-21 05:33N 34°28' E 135°10'1212.1
2015-Mar-21 04:33N 34°38' E 135°18'3 3.1
2015-Mar-21 03:31N 34°41' E 135°17'2 2.5
2015-Mar-21 02:33N 34°39' E 135°15'0 0.0
2015-Mar-21 01:33N 34°39' E 135°15'1 0.7
2015-Mar-21 00:34N 34°40' E 135°14'1 0.6
2015-Mar-20 23:33N 34°40' E 135°14'3 2.6
2015-Mar-20 22:29N 34°37' E 135°15'0 0.0
2015-Mar-20 21:11N 34°37' E 135°15'0 0.0
2015-Mar-20 20:23N 34°37' E 135°15'6 7.2
2015-Mar-20 19:33N 34°31' E 135°12'1010.5
2015-Mar-20 18:33N 34°24' E 135°04'9 9.3
2015-Mar-20 17:33N 34°15' E 134°59'9 9.2
2015-Mar-20 16:33N 34°06' E 134°58'240 8.9
2015-Mar-19 13:33N 35°06' E 139°41'1111.3
2015-Mar-19 12:33N 35°16' E 139°46'9 8.6
2015-Mar-19 11:33N 35°24' E 139°41'0 0.3
2015-Mar-19 10:34N 35°24' E 139°41'1 0.8
2015-Mar-19 09:33N 35°24' E 139°41'7 6.7
2015-Mar-19 08:33N 35°28' E 139°48'6 5.9
2015-Mar-19 07:31N 35°34' E 139°49'1 1.1
2015-Mar-19 06:24N 35°35' E 139°48'5 4.2
2015-Mar-19 05:15N 35°30' E 139°50'4 6.4
2015-Mar-19 04:33N 35°27' E 139°46'4 3.5
2015-Mar-19 03:23N 35°26' E 139°41'0 0.0
2015-Mar-19 02:32N 35°26' E 139°41'0 0.0
2015-Mar-19 01:32N 35°26' E 139°41'0 0.4
2015-Mar-19 00:34N 35°27' E 139°41'4 3.6
2015-Mar-18 23:31N 35°24' E 139°44'0 0.0
2015-Mar-18 22:31N 35°24' E 139°44'0 0.0
2015-Mar-18 21:31N 35°24' E 139°44'0 0.0
2015-Mar-18 20:31N 35°24' E 139°44'0 0.1
2015-Mar-18 19:31N 35°24' E 139°44'0 0.0
2015-Mar-18 18:31N 35°24' E 139°44'0 0.0
2015-Mar-18 17:31N 35°24' E 139°44'0 0.0
2015-Mar-18 16:31N 35°24' E 139°44'0 0.0
2015-Mar-18 15:31N 35°24' E 139°44'0 0.0
2015-Mar-18 14:28N 35°24' E 139°44'0 0.0
2015-Mar-18 13:28N 35°24' E 139°44'0 0.0
2015-Mar-18 12:31N 35°24' E 139°44'0 0.0
2015-Mar-18 11:31N 35°24' E 139°44'0 0.0
2015-Mar-18 10:31N 35°24' E 139°44'0 0.0
2015-Mar-18 09:31N 35°24' E 139°44'0 0.0
2015-Mar-18 08:31N 35°24' E 139°44'  
Track history (hours):
 
Tides and Currents Weather Stations Pressure Air Temp Water Temp Dewpoint Dewpoint Depression Visibility Wind Speed Wind Dir Waves Ship Positions

Daikoku

Last reported at 2015-Mar-28 07:29 UTC. Time now 2015-Mar-28 14:20 UTC.
Position N 34°24' E 135°03'.

Length 95 m; draft 3.8 m.

Type: Cargo ship. MMSI: 431003009.

Date/timePositionNaut miles runAvg speedWind from/ knotsBaromVisibWave heightAir tempDewpointWater temp
2015-Mar-28 07:29N 34°24' E 135°03'1112.2
2015-Mar-28 06:33N 34°32' E 135°13'8 7.9
2015-Mar-28 05:33N 34°40' E 135°14'0 0.0
2015-Mar-28 04:19N 34°40' E 135°14'0 0.0
2015-Mar-28 03:31N 34°40' E 135°14'3 2.8
2015-Mar-28 02:33N 34°41' E 135°17'2 2.4
2015-Mar-28 01:33N 34°39' E 135°15'0 0.0
2015-Mar-28 00:26N 34°39' E 135°15'1 1.0
2015-Mar-27 23:33N 34°39' E 135°16'2 2.0
2015-Mar-27 22:31N 34°37' E 135°15'0 0.0
2015-Mar-27 21:32N 34°37' E 135°15'0 0.0
2015-Mar-27 20:28N 34°37' E 135°15'0 0.0
2015-Mar-27 19:32N 34°37' E 135°15'0 0.0
2015-Mar-27 18:26N 34°37' E 135°15'0 0.0
2015-Mar-27 17:32N 34°37' E 135°15'1010.1
2015-Mar-27 16:33N 34°28' E 135°09'1313.1
2015-Mar-27 15:32N 34°18' E 134°59'1212.7
2015-Mar-27 14:33N 34°06' E 134°60'233 9.5
2015-Mar-26 14:05N 35°01' E 139°34'611.1
2015-Mar-26 13:33N 35°05' E 139°40'1110.9
2015-Mar-26 12:33N 35°14' E 139°46'1110.8
2015-Mar-26 11:33N 35°24' E 139°41'0 0.1
2015-Mar-26 10:29N 35°24' E 139°41'1 1.3
2015-Mar-26 09:33N 35°24' E 139°42'2 0.6
2015-Mar-26 07:11N 35°23' E 139°44'0 0.1
2015-Mar-26 06:20N 35°23' E 139°44'0 0.0
2015-Mar-26 05:32N 35°23' E 139°44'0 0.0
2015-Mar-26 04:23N 35°23' E 139°44'0 0.0
2015-Mar-26 03:32N 35°23' E 139°44'0 0.0
2015-Mar-26 02:32N 35°23' E 139°44'0 0.0
2015-Mar-26 01:32N 35°23' E 139°44'0 0.0
2015-Mar-26 00:26N 35°23' E 139°44'0 0.0
2015-Mar-25 23:32N 35°23' E 139°44'0 0.0
2015-Mar-25 22:32N 35°23' E 139°44'0 0.0
2015-Mar-25 21:32N 35°23' E 139°44'0 0.0
2015-Mar-25 20:32N 35°23' E 139°44'0 0.0
2015-Mar-25 19:29N 35°23' E 139°44'0 0.0
2015-Mar-25 18:32N 35°23' E 139°44'0 0.0
2015-Mar-25 17:32N 35°23' E 139°44'0 0.0
2015-Mar-25 16:32N 35°23' E 139°44'0 0.0
2015-Mar-25 15:32N 35°23' E 139°44'0 0.0
2015-Mar-25 14:32N 35°23' E 139°44'0 0.0
2015-Mar-25 13:32N 35°23' E 139°44'0 0.0
2015-Mar-25 12:32N 35°23' E 139°44'0 0.0
2015-Mar-25 11:32N 35°23' E 139°44'0 0.0
2015-Mar-25 10:32N 35°23' E 139°44'0 0.1
2015-Mar-25 09:32N 35°23' E 139°44'0 0.1
2015-Mar-25 08:32N 35°23' E 139°44'0 0.0
2015-Mar-25 07:32N 35°23' E 139°44'0 0.0
2015-Mar-25 06:32N 35°23' E 139°44'0 0.1
2015-Mar-25 05:29N 35°23' E 139°44'0 0.0
2015-Mar-25 04:32N 35°23' E 139°44'0 0.0
2015-Mar-25 03:32N 35°23' E 139°44'0 0.0
2015-Mar-25 02:32N 35°23' E 139°44'0 0.0
2015-Mar-25 01:32N 35°23' E 139°44'9 9.2
2015-Mar-25 00:33N 35°30' E 139°51'7 6.5
2015-Mar-24 23:31N 35°36' E 139°48'5 5.1
2015-Mar-24 22:31N 35°33' E 139°53'0 0.0
2015-Mar-24 21:28N 35°33' E 139°53'0 0.0
2015-Mar-24 20:22N 35°33' E 139°53'0 0.0
2015-Mar-24 19:31N 35°33' E 139°53'0 0.0
2015-Mar-24 18:31N 35°33' E 139°53'0 0.0
2015-Mar-24 17:25N 35°33' E 139°53'0 0.0
2015-Mar-24 16:16N 35°33' E 139°53'0 0.1
2015-Mar-24 15:31N 35°33' E 139°53'0 0.0
2015-Mar-24 14:25N 35°33' E 139°53'0 0.0
2015-Mar-24 13:28N 35°33' E 139°53'0 0.0
2015-Mar-24 12:25N 35°33' E 139°53'0 0.0
2015-Mar-24 11:25N 35°33' E 139°53'0 0.0
2015-Mar-24 10:25N 35°33' E 139°53'0 0.0
2015-Mar-24 09:25N 35°33' E 139°53'0 0.0
2015-Mar-24 08:25N 35°33' E 139°53'0 0.0
2015-Mar-24 07:31N 35°33' E 139°53'0 0.0
2015-Mar-24 06:25N 35°33' E 139°53'0 0.0
2015-Mar-24 05:25N 35°33' E 139°53'0 0.0
2015-Mar-24 04:19N 35°33' E 139°53'0 0.1
2015-Mar-24 03:28N 35°33' E 139°53'0 0.0
2015-Mar-24 02:19N 35°33' E 139°53'0 0.0
2015-Mar-24 01:31N 35°33' E 139°53'9 9.6
2015-Mar-24 00:33N 35°27' E 139°44'1 1.0
2015-Mar-23 23:33N 35°27' E 139°43'3 2.7
2015-Mar-23 22:32N 35°24' E 139°44'0 0.0
2015-Mar-23 21:32N 35°24' E 139°44'0 0.1
2015-Mar-23 20:32N 35°24' E 139°45'0 0.0
2015-Mar-23 19:32N 35°24' E 139°44'0 0.1
2015-Mar-23 18:32N 35°24' E 139°44'0 0.0
2015-Mar-23 17:32N 35°24' E 139°44'0 0.1
2015-Mar-23 16:32N 35°24' E 139°44'0 0.0
2015-Mar-23 15:32N 35°24' E 139°44'0 0.0
2015-Mar-23 14:32N 35°24' E 139°44'0 0.0
2015-Mar-23 13:32N 35°24' E 139°44'0 0.1
2015-Mar-23 12:32N 35°24' E 139°44'0 0.0
2015-Mar-23 11:32N 35°24' E 139°44'0 0.0
2015-Mar-23 10:32N 35°24' E 139°44'0 0.0
2015-Mar-23 09:32N 35°24' E 139°44'0 0.0
2015-Mar-23 08:29N 35°24' E 139°44'0 0.0
2015-Mar-23 07:29N 35°24' E 139°44'0 0.1
2015-Mar-23 06:29N 35°24' E 139°44'0 0.0
2015-Mar-23 05:29N 35°24' E 139°44'0 0.0
2015-Mar-23 04:29N 35°24' E 139°44'0 0.0
2015-Mar-23 03:32N 35°24' E 139°44'0 0.0
2015-Mar-23 02:32N 35°24' E 139°44'0 0.0
2015-Mar-23 01:32N 35°24' E 139°44'0 0.0
2015-Mar-23 00:32N 35°24' E 139°44'0 0.0
2015-Mar-22 23:32N 35°24' E 139°44'0 0.1
2015-Mar-22 22:32N 35°24' E 139°44'0 0.1
2015-Mar-22 21:32N 35°24' E 139°44'0 0.0
2015-Mar-22 20:32N 35°24' E 139°44'0 0.0
2015-Mar-22 19:29N 35°24' E 139°44'0 0.1
2015-Mar-22 18:32N 35°24' E 139°44'0 0.0
2015-Mar-22 17:32N 35°24' E 139°44'3 3.1
2015-Mar-22 16:33N 35°24' E 139°41'0 0.1
2015-Mar-22 15:32N 35°24' E 139°41'8 8.0
2015-Mar-22 14:33N 35°17' E 139°45'1313.3
2015-Mar-22 13:34N 35°04' E 139°45'1514.9
2015-Mar-22 12:33N 34°55' E 139°30'227 7.7
2015-Mar-21 07:05N 34°11' E 134°59'814.9
2015-Mar-21 06:33N 34°18' E 134°59'1313.1
2015-Mar-21 05:33N 34°28' E 135°10'1212.1
2015-Mar-21 04:33N 34°38' E 135°18'3 3.1
2015-Mar-21 03:31N 34°41' E 135°17'2 2.5
2015-Mar-21 02:33N 34°39' E 135°15'0 0.0
2015-Mar-21 01:33N 34°39' E 135°15'1 0.7
2015-Mar-21 00:34N 34°40' E 135°14'1 0.6
2015-Mar-20 23:33N 34°40' E 135°14'3 2.6
2015-Mar-20 22:29N 34°37' E 135°15'0 0.0
2015-Mar-20 21:11N 34°37' E 135°15'0 0.0
2015-Mar-20 20:23N 34°37' E 135°15'6 7.2
2015-Mar-20 19:33N 34°31' E 135°12'1010.5
2015-Mar-20 18:33N 34°24' E 135°04'9 9.3
2015-Mar-20 17:33N 34°15' E 134°59'9 9.2
2015-Mar-20 16:33N 34°06' E 134°58'240 8.9
2015-Mar-19 13:33N 35°06' E 139°41'1111.3
2015-Mar-19 12:33N 35°16' E 139°46'9 8.6
2015-Mar-19 11:33N 35°24' E 139°41'0 0.3
2015-Mar-19 10:34N 35°24' E 139°41'1 0.8
2015-Mar-19 09:33N 35°24' E 139°41'7 6.7
2015-Mar-19 08:33N 35°28' E 139°48'6 5.9
2015-Mar-19 07:31N 35°34' E 139°49'1 1.1
2015-Mar-19 06:24N 35°35' E 139°48'5 4.2
2015-Mar-19 05:15N 35°30' E 139°50'4 6.4
2015-Mar-19 04:33N 35°27' E 139°46'4 3.5
2015-Mar-19 03:23N 35°26' E 139°41'0 0.0
2015-Mar-19 02:32N 35°26' E 139°41'0 0.0
2015-Mar-19 01:32N 35°26' E 139°41'0 0.4
2015-Mar-19 00:34N 35°27' E 139°41'4 3.6
2015-Mar-18 23:31N 35°24' E 139°44'0 0.0
2015-Mar-18 22:31N 35°24' E 139°44'0 0.0
2015-Mar-18 21:31N 35°24' E 139°44'0 0.0
2015-Mar-18 20:31N 35°24' E 139°44'0 0.1
2015-Mar-18 19:31N 35°24' E 139°44'0 0.0
2015-Mar-18 18:31N 35°24' E 139°44'0 0.0
2015-Mar-18 17:31N 35°24' E 139°44'0 0.0
2015-Mar-18 16:31N 35°24' E 139°44'0 0.0
2015-Mar-18 15:31N 35°24' E 139°44'0 0.0
2015-Mar-18 14:28N 35°24' E 139°44'0 0.0
2015-Mar-18 13:28N 35°24' E 139°44'0 0.0
2015-Mar-18 12:31N 35°24' E 139°44'0 0.0
2015-Mar-18 11:31N 35°24' E 139°44'0 0.0
2015-Mar-18 10:31N 35°24' E 139°44'0 0.0
2015-Mar-18 09:31N 35°24' E 139°44'0 0.0
2015-Mar-18 08:31N 35°24' E 139°44'  

Dump ship's entire track history